createdAt,value
2022-11-01T00:02:08.869Z,100243.50
2022-11-01T00:04:36.773Z,100247.97
2022-11-01T00:07:04.436Z,100244.94
2022-11-01T00:09:32.105Z,100235.34
2022-11-01T00:11:59.832Z,100232.84
2022-11-01T00:14:27.351Z,100236.41
2022-11-01T00:16:54.986Z,100241.72
2022-11-01T00:19:22.743Z,100232.63
2022-11-01T00:21:50.433Z,100232.56
2022-11-01T00:24:17.882Z,100237.84
2022-11-01T00:26:45.724Z,100241.50
2022-11-01T00:29:13.514Z,100236.84
2022-11-01T00:31:41.139Z,100229.66
2022-11-01T00:34:09.219Z,100225.31
2022-11-01T00:36:36.978Z,100227.56
2022-11-01T00:39:05.294Z,100233.81
2022-11-01T00:41:33.054Z,100231.81
2022-11-01T00:44:00.564Z,100235.31
2022-11-01T00:46:28.026Z,100228.75
2022-11-01T00:48:55.717Z,100224.44
2022-11-01T00:51:23.170Z,100229.34
2022-11-01T00:53:50.804Z,100229.12
2022-11-01T00:56:18.552Z,100214.22
2022-11-01T00:58:46.006Z,100206.00
2022-11-01T01:01:13.694Z,100206.00
2022-11-01T01:03:41.452Z,100206.37
2022-11-01T01:06:08.857Z,100192.00
2022-11-01T01:08:36.328Z,100204.84
2022-11-01T01:11:04.069Z,100209.38
2022-11-01T01:13:31.494Z,100203.25
2022-11-01T01:15:58.964Z,100201.81
2022-11-01T01:18:27.344Z,100189.34
2022-11-01T01:21:01.984Z,100180.03
2022-11-01T01:23:29.732Z,100179.78
2022-11-01T01:25:57.161Z,100192.03
2022-11-01T01:28:24.612Z,100183.97
2022-11-01T01:30:52.279Z,100189.44
2022-11-01T01:33:19.761Z,100184.44
2022-11-01T01:35:47.410Z,100190.06
2022-11-01T01:38:15.115Z,100191.56
2022-11-01T01:40:42.543Z,100173.94
2022-11-01T01:43:12.171Z,100178.22
2022-11-01T01:45:41.151Z,100180.06
2022-11-01T01:48:13.269Z,100176.50
2022-11-01T01:51:02.610Z,100188.12
2022-11-01T01:53:36.312Z,100182.47
2022-11-01T01:56:07.214Z,100171.12
2022-11-01T01:58:38.222Z,100166.22
2022-11-01T02:01:06.341Z,100179.03
2022-11-01T02:03:35.171Z,100180.16
2022-11-01T02:06:09.117Z,100176.25
2022-11-01T02:08:39.240Z,100165.63
2022-11-01T02:11:07.846Z,100164.75
2022-11-01T02:13:35.399Z,100172.22
2022-11-01T02:16:38.992Z,100167.56
2022-11-01T02:19:31.959Z,100164.44
2022-11-01T02:22:08.636Z,100165.72
2022-11-01T02:25:01.956Z,100167.22
2022-11-01T02:27:32.096Z,100163.94
2022-11-01T02:30:18.674Z,100161.75
2022-11-01T02:33:19.095Z,100159.41
2022-11-01T02:35:59.059Z,100152.81
2022-11-01T02:38:34.840Z,100143.00
2022-11-01T02:41:10.065Z,100141.34
2022-11-01T02:43:47.197Z,100138.87
2022-11-01T02:46:35.222Z,100142.59
2022-11-01T02:49:03.090Z,100143.25
2022-11-01T02:51:32.204Z,100135.97
2022-11-01T02:54:21.703Z,100134.91
2022-11-01T02:56:50.838Z,100142.41
2022-11-01T02:59:23.737Z,100141.34
2022-11-01T03:02:01.870Z,100147.03
2022-11-01T03:04:29.737Z,100148.13
2022-11-01T03:06:59.695Z,100140.53
2022-11-01T03:09:27.696Z,100140.50
2022-11-01T03:12:00.800Z,100145.44
2022-11-01T03:14:52.642Z,100152.78
2022-11-01T03:17:32.631Z,100154.28
2022-11-01T03:20:09.450Z,100139.34
2022-11-01T03:22:44.163Z,100138.03
2022-11-01T03:25:35.592Z,100148.53
2022-11-01T03:28:09.479Z,100150.19
2022-11-01T03:30:37.362Z,100142.47
2022-11-01T03:33:05.132Z,100148.03
2022-11-01T03:35:35.916Z,100152.34
2022-11-01T03:38:12.847Z,100150.13
2022-11-01T03:40:43.158Z,100149.13
2022-11-01T03:43:12.429Z,100151.47
2022-11-01T03:45:40.439Z,100143.00
2022-11-01T03:48:08.063Z,100154.31
2022-11-01T03:50:35.967Z,100147.84
2022-11-01T03:53:03.459Z,100149.66
2022-11-01T03:55:30.838Z,100142.59
2022-11-01T03:58:00.144Z,100148.91
2022-11-01T04:00:33.030Z,100135.75
2022-11-01T04:03:01.433Z,100129.53
2022-11-01T04:05:30.491Z,100118.78
2022-11-01T04:07:57.987Z,100129.03
2022-11-01T04:10:26.612Z,100124.47
2022-11-01T04:12:54.034Z,100118.59
2022-11-01T04:15:41.123Z,100112.19
2022-11-01T04:18:42.917Z,100116.16
2022-11-01T04:21:21.633Z,100114.41
2022-11-01T04:23:49.633Z,100116.59
2022-11-01T04:26:20.218Z,100118.75
2022-11-01T04:28:59.849Z,100119.78
2022-11-01T04:31:27.514Z,100120.84
2022-11-01T04:33:55.974Z,100123.22
2022-11-01T04:36:23.605Z,100118.09
2022-11-01T04:38:52.847Z,100116.41
2022-11-01T04:41:20.259Z,100119.34
2022-11-01T04:43:47.701Z,100122.09
2022-11-01T04:46:16.077Z,100113.66
2022-11-01T04:48:43.463Z,100118.44
2022-11-01T04:51:11.111Z,100112.66
2022-11-01T04:53:39.012Z,100119.81
2022-11-01T04:56:09.013Z,100121.19
2022-11-01T04:58:41.432Z,100122.66
2022-11-01T05:01:12.907Z,100126.16
2022-11-01T05:03:40.603Z,100124.22
2022-11-01T05:06:08.068Z,100126.25
2022-11-01T05:08:35.787Z,100121.78
2022-11-01T05:11:03.257Z,100126.06
2022-11-01T05:13:30.832Z,100120.22
2022-11-01T05:16:18.523Z,100121.31
2022-11-01T05:18:46.053Z,100115.56
2022-11-01T05:21:13.718Z,100118.69
2022-11-01T05:23:41.166Z,100118.66
2022-11-01T05:26:08.683Z,100111.37
2022-11-01T05:28:36.393Z,100103.03
2022-11-01T05:31:03.890Z,100103.88
2022-11-01T05:33:31.340Z,100102.72
2022-11-01T05:36:01.162Z,100103.16
2022-11-01T05:38:28.593Z,100112.78
2022-11-01T05:40:56.047Z,100117.91
2022-11-01T05:43:23.785Z,100117.50
2022-11-01T05:45:51.374Z,100116.41
2022-11-01T05:48:18.827Z,100119.09
2022-11-01T05:50:47.128Z,100118.44
2022-11-01T05:53:14.748Z,100111.78
2022-11-01T05:55:42.259Z,100123.97
2022-11-01T05:58:09.983Z,100119.00
2022-11-01T06:00:37.436Z,100116.69
2022-11-01T06:03:06.236Z,100123.38
2022-11-01T06:05:34.470Z,100122.06
2022-11-01T06:08:02.281Z,100123.75
2022-11-01T06:10:31.155Z,100137.00
2022-11-01T06:12:59.104Z,100127.97
2022-11-01T06:15:26.717Z,100128.66
2022-11-01T06:18:01.431Z,100128.84
2022-11-01T06:20:30.322Z,100135.44
2022-11-01T06:22:59.000Z,100131.38
2022-11-01T06:25:27.575Z,100136.13
2022-11-01T06:27:55.084Z,100126.56
2022-11-01T06:30:22.813Z,100124.94
2022-11-01T06:32:50.247Z,100133.34
2022-11-01T06:35:17.612Z,100127.38
2022-11-01T06:37:45.388Z,100130.62
2022-11-01T06:40:13.121Z,100137.50
2022-11-01T06:42:45.514Z,100138.63
2022-11-01T06:45:14.546Z,100143.50
2022-11-01T06:47:46.440Z,100146.56
2022-11-01T06:50:14.221Z,100147.69
2022-11-01T06:52:41.612Z,100148.53
2022-11-01T06:55:09.158Z,100148.69
2022-11-01T06:57:36.899Z,100148.31
2022-11-01T07:00:04.883Z,100141.72
2022-11-01T07:02:32.499Z,100150.62
2022-11-01T07:05:00.371Z,100151.94
2022-11-01T07:07:28.013Z,100145.87
2022-11-01T07:09:55.421Z,100162.19
2022-11-01T07:12:23.073Z,100154.44
2022-11-01T07:14:50.467Z,100158.41
2022-11-01T07:17:17.882Z,100154.84
2022-11-01T07:19:45.606Z,100156.97
2022-11-01T07:22:14.297Z,100144.28
2022-11-01T07:24:41.700Z,100148.53
2022-11-01T07:27:09.428Z,100153.53
2022-11-01T07:29:36.846Z,100155.47
2022-11-01T07:32:04.570Z,100155.97
2022-11-01T07:34:32.366Z,100161.66
2022-11-01T07:36:59.780Z,100156.69
2022-11-01T07:39:27.240Z,100160.41
2022-11-01T07:41:54.949Z,100164.28
2022-11-01T07:44:22.357Z,100166.66
2022-11-01T07:46:49.763Z,100166.06
2022-11-01T07:49:17.404Z,100161.19
2022-11-01T07:51:44.813Z,100164.88
2022-11-01T07:54:12.278Z,100171.00
2022-11-01T07:56:39.976Z,100167.25
2022-11-01T07:59:08.594Z,100169.84
2022-11-01T08:01:36.247Z,100160.00
2022-11-01T08:04:04.154Z,100157.75
2022-11-01T08:06:31.573Z,100152.34
2022-11-01T08:08:59.053Z,100152.66
2022-11-01T08:11:28.197Z,100152.41
2022-11-01T08:14:00.865Z,100147.38
2022-11-01T08:16:32.143Z,100150.47
2022-11-01T08:18:59.631Z,100147.53
2022-11-01T08:21:27.328Z,100146.34
2022-11-01T08:23:55.014Z,100149.69
2022-11-01T08:26:22.452Z,100153.53
2022-11-01T08:28:50.918Z,100150.41
2022-11-01T08:31:18.623Z,100153.03
2022-11-01T08:33:46.391Z,100155.50
2022-11-01T08:36:14.739Z,100158.56
2022-11-01T08:38:44.352Z,100158.63
2022-11-01T08:41:11.786Z,100156.53
2022-11-01T08:43:40.716Z,100158.31
2022-11-01T08:46:10.697Z,100151.84
2022-11-01T08:48:38.179Z,100155.69
2022-11-01T08:51:05.824Z,100150.13
2022-11-01T08:53:34.462Z,100151.81
2022-11-01T08:56:02.287Z,100149.47
2022-11-01T08:58:29.820Z,100155.44
2022-11-01T09:00:57.698Z,100159.41
2022-11-01T09:03:25.225Z,100154.88
2022-11-01T09:05:52.705Z,100145.16
2022-11-01T09:08:20.400Z,100156.91
2022-11-01T09:10:47.862Z,100146.41
2022-11-01T09:13:15.329Z,100150.06
2022-11-01T09:15:43.029Z,100151.41
2022-11-01T09:18:10.753Z,100136.69
2022-11-01T09:20:38.250Z,100145.16
2022-11-01T09:23:06.235Z,100138.97
2022-11-01T09:25:33.913Z,100141.00
2022-11-01T09:28:01.347Z,100143.00
2022-11-01T09:30:30.267Z,100147.12
2022-11-01T09:32:57.669Z,100143.94
2022-11-01T09:35:25.168Z,100147.50
2022-11-01T09:38:00.818Z,100138.91
2022-11-01T09:40:29.049Z,100150.81
2022-11-01T09:43:01.583Z,100148.38
2022-11-01T09:45:31.910Z,100142.56
2022-11-01T09:48:02.119Z,100144.97
2022-11-01T09:50:37.781Z,100137.53
2022-11-01T09:53:09.356Z,100143.47
2022-11-01T09:56:10.144Z,100142.25
2022-11-01T09:59:01.673Z,100143.06
2022-11-01T10:02:05.819Z,100139.50
2022-11-01T10:04:48.788Z,100142.09
2022-11-01T10:07:41.190Z,100138.56
2022-11-01T10:10:40.446Z,100133.41
2022-11-01T10:13:26.689Z,100136.94
2022-11-01T10:16:05.432Z,100132.97
2022-11-01T10:18:41.079Z,100122.81
2022-11-01T10:21:13.666Z,100123.88
2022-11-01T10:23:50.711Z,100124.91
2022-11-01T10:26:23.461Z,100119.06
2022-11-01T10:28:50.775Z,100120.19
2022-11-01T10:31:22.547Z,100127.16
2022-11-01T10:34:05.300Z,100116.66
2022-11-01T10:36:34.763Z,100122.44
2022-11-01T10:42:09.794Z,100122.13
2022-11-01T10:44:57.417Z,100124.13
2022-11-01T10:47:25.681Z,100118.94
2022-11-01T10:50:05.931Z,100120.25
2022-11-01T10:52:55.917Z,100115.28
2022-11-01T10:55:38.599Z,100124.44
2022-11-01T10:58:13.594Z,100118.47
2022-11-01T11:00:42.491Z,100114.56
2022-11-01T11:03:25.154Z,100120.31
2022-11-01T11:05:54.078Z,100114.09
2022-11-01T11:08:23.418Z,100115.63
2022-11-01T11:10:51.381Z,100114.94
2022-11-01T11:13:23.876Z,100113.28
2022-11-01T11:16:16.408Z,100119.63
2022-11-01T11:19:01.261Z,100109.53
2022-11-01T11:21:34.126Z,100108.97
2022-11-01T11:24:02.846Z,100102.25
2022-11-01T11:26:39.166Z,100106.88
2022-11-01T11:29:06.914Z,100102.88
2022-11-01T11:31:35.058Z,100103.22
2022-11-01T11:34:20.675Z,100096.34
2022-11-01T11:36:49.795Z,100101.84
2022-11-01T11:39:37.111Z,100105.16
2022-11-01T11:42:24.695Z,100096.75
2022-11-01T11:44:57.062Z,100094.97
2022-11-01T11:47:26.874Z,100092.16
2022-11-01T11:49:56.649Z,100093.84
2022-11-01T11:52:28.777Z,100090.22
2022-11-01T11:54:56.886Z,100094.31
2022-11-01T11:57:26.931Z,100102.03
2022-11-01T11:59:57.174Z,100092.22
2022-11-01T12:02:27.961Z,100090.06
2022-11-01T12:04:58.771Z,100079.84
2022-11-01T12:07:28.295Z,100077.44
2022-11-01T12:09:58.010Z,100075.59
2022-11-01T12:12:31.196Z,100077.91
2022-11-01T12:15:00.254Z,100073.12
2022-11-01T12:17:34.695Z,100076.03
2022-11-01T12:20:16.935Z,100075.63
2022-11-01T12:23:10.222Z,100068.78
2022-11-01T12:25:40.157Z,100064.19
2022-11-01T12:28:20.752Z,100067.75
2022-11-01T12:30:49.722Z,100063.69
2022-11-01T12:33:25.370Z,100055.88
2022-11-01T12:35:56.939Z,100060.00
2022-11-01T12:38:35.832Z,100053.53
2022-11-01T12:41:29.843Z,100054.03
2022-11-01T12:44:16.055Z,100046.22
2022-11-01T12:46:51.757Z,100039.12
2022-11-01T12:49:41.337Z,100041.38
2022-11-01T12:52:31.345Z,100046.94
2022-11-01T12:55:06.348Z,100044.09
2022-11-01T12:57:34.908Z,100042.66
2022-11-01T13:00:03.272Z,100037.13
2022-11-01T13:02:43.436Z,100040.53
2022-11-01T13:05:29.227Z,100039.41
2022-11-01T13:08:09.715Z,100044.63
2022-11-01T13:13:23.895Z,100030.28
2022-11-01T13:16:14.386Z,100038.38
2022-11-01T13:18:55.651Z,100042.22
2022-11-01T13:22:01.521Z,100038.97
2022-11-01T13:24:34.491Z,100033.84
2022-11-01T13:27:25.480Z,100032.00
2022-11-01T13:30:05.893Z,100026.87
2022-11-01T13:32:37.791Z,100025.75
2022-11-01T13:35:24.033Z,100023.28
2022-11-01T13:38:27.590Z,100036.69
2022-11-01T13:41:01.115Z,100038.78
2022-11-01T13:43:36.927Z,100031.66
2022-11-01T13:46:13.536Z,100025.28
2022-11-01T13:48:59.870Z,100026.84
2022-11-01T13:52:01.559Z,100018.69
2022-11-01T13:54:51.236Z,100026.75
2022-11-01T13:57:21.106Z,100027.22
2022-11-01T13:59:57.391Z,100030.47
2022-11-01T14:02:28.059Z,100026.84
2022-11-01T14:04:59.027Z,100024.94
2022-11-01T14:07:32.373Z,100029.03
2022-11-01T14:10:00.111Z,100030.66
2022-11-01T14:12:30.727Z,100024.00
2022-11-01T14:15:32.807Z,100021.41
2022-11-01T14:18:05.165Z,100027.00
2022-11-01T14:20:40.522Z,100017.44
2022-11-01T14:23:29.906Z,100012.34
2022-11-01T14:26:22.898Z,100024.75
2022-11-01T14:28:56.900Z,100015.00
2022-11-01T14:31:26.835Z,100016.16
2022-11-01T14:33:59.866Z,100017.28
2022-11-01T14:36:29.667Z,100018.81
2022-11-01T14:39:07.032Z,100013.75
2022-11-01T14:41:36.584Z,100017.41
2022-11-01T14:44:11.790Z,100013.25
2022-11-01T14:46:46.224Z,100017.34
2022-11-01T14:49:42.775Z,100018.06
2022-11-01T14:52:24.659Z,100014.81
2022-11-01T14:54:56.526Z,100013.09
2022-11-01T14:57:30.558Z,100020.13
2022-11-01T14:59:58.872Z,100022.63
2022-11-01T15:02:27.957Z,100029.78
2022-11-01T15:05:00.023Z,100028.34
2022-11-01T15:07:31.246Z,100035.44
2022-11-01T15:10:06.737Z,100030.28
2022-11-01T15:12:38.171Z,100034.34
2022-11-01T15:15:06.454Z,100042.28
2022-11-01T15:17:34.642Z,100046.12
2022-11-01T15:20:13.321Z,100043.66
2022-11-01T15:22:42.795Z,100045.91
2022-11-01T15:25:20.675Z,100048.53
2022-11-01T15:27:48.600Z,100044.78
2022-11-01T15:30:23.732Z,100044.88
2022-11-01T15:32:53.887Z,100050.69
2022-11-01T15:35:25.727Z,100044.28
2022-11-01T15:37:54.595Z,100037.31
2022-11-01T15:40:29.585Z,100036.16
2022-11-01T15:43:02.119Z,100048.28
2022-11-01T15:45:31.116Z,100044.16
2022-11-01T15:48:07.353Z,100042.47
2022-11-01T15:50:37.651Z,100038.59
2022-11-01T15:53:10.054Z,100040.31
2022-11-01T15:55:41.886Z,100040.00
2022-11-01T15:58:17.569Z,100041.00
2022-11-01T16:00:51.736Z,100041.16
2022-11-01T16:03:35.932Z,100042.91
2022-11-01T16:06:13.992Z,100054.56
2022-11-01T16:08:50.348Z,100046.50
2022-11-01T16:11:22.718Z,100055.59
2022-11-01T16:14:00.497Z,100052.59
2022-11-01T16:16:29.143Z,100051.47
2022-11-01T16:18:57.047Z,100052.81
2022-11-01T16:21:30.701Z,100051.53
2022-11-01T16:24:15.656Z,100047.94
2022-11-01T16:26:56.269Z,100056.78
2022-11-01T16:29:40.599Z,100046.25
2022-11-01T16:32:29.998Z,100041.81
2022-11-01T16:35:00.242Z,100045.78
2022-11-01T16:37:32.793Z,100047.81
2022-11-01T16:40:24.517Z,100037.84
2022-11-01T16:42:52.229Z,100047.13
2022-11-01T16:45:20.119Z,100053.94
2022-11-01T16:47:47.592Z,100040.13
2022-11-01T16:50:21.296Z,100058.94
2022-11-01T16:52:49.109Z,100052.78
2022-11-01T16:55:16.672Z,100049.38
2022-11-01T16:57:47.232Z,100053.38
2022-11-01T17:00:15.343Z,100068.59
2022-11-01T17:02:44.110Z,100068.03
2022-11-01T17:05:15.570Z,100068.75
2022-11-01T17:07:43.549Z,100072.31
2022-11-01T17:10:20.976Z,100072.31
2022-11-01T17:12:49.057Z,100074.28
2022-11-01T17:15:17.368Z,100083.28
2022-11-01T17:17:46.961Z,100073.56
2022-11-01T17:20:20.105Z,100073.88
2022-11-01T17:22:50.921Z,100079.28
2022-11-01T17:25:20.320Z,100072.28
2022-11-01T17:27:51.132Z,100071.03
2022-11-01T17:30:19.888Z,100082.00
2022-11-01T17:32:47.506Z,100069.50
2022-11-01T17:35:15.794Z,100064.78
2022-11-01T17:37:43.810Z,100067.50
2022-11-01T17:40:22.783Z,100072.88
2022-11-01T17:42:50.976Z,100069.16
2022-11-01T17:45:18.495Z,100069.31
2022-11-01T17:47:47.164Z,100072.47
2022-11-01T17:50:16.313Z,100066.19
2022-11-01T17:52:44.181Z,100066.78
2022-11-01T17:55:12.136Z,100069.31
2022-11-01T17:57:41.062Z,100074.91
2022-11-01T18:00:09.905Z,100062.34
2022-11-01T18:02:40.139Z,100058.97
2022-11-01T18:05:09.447Z,100055.25
2022-11-01T18:07:41.988Z,100067.47
2022-11-01T18:10:27.544Z,100061.78
2022-11-01T18:13:30.137Z,100056.81
2022-11-01T18:16:04.735Z,100057.81
2022-11-01T18:18:44.708Z,100058.69
2022-11-01T18:21:48.924Z,100057.25
2022-11-01T18:24:22.618Z,100056.81
2022-11-01T18:26:51.454Z,100051.84
2022-11-01T18:29:24.014Z,100049.31
2022-11-01T18:32:02.439Z,100050.87
2022-11-01T18:34:37.326Z,100052.09
2022-11-01T18:37:45.022Z,100059.38
2022-11-01T18:40:27.449Z,100064.47
2022-11-01T18:42:55.291Z,100052.84
2022-11-01T18:45:30.994Z,100051.16
2022-11-01T18:48:13.343Z,100055.13
2022-11-01T18:50:41.085Z,100051.00
2022-11-01T18:53:08.973Z,100053.44
2022-11-01T18:55:37.267Z,100061.25
2022-11-01T18:58:22.352Z,100057.97
2022-11-01T19:01:12.098Z,100063.22
2022-11-01T19:03:40.366Z,100058.09
2022-11-01T19:06:20.053Z,100057.28
2022-11-01T19:08:58.911Z,100062.56
2022-11-01T19:11:28.368Z,100062.84
2022-11-01T19:14:02.280Z,100057.59
2022-11-01T19:16:30.315Z,100067.69
2022-11-01T19:18:57.951Z,100062.84
2022-11-01T19:21:25.933Z,100057.28
2022-11-01T19:23:54.339Z,100050.41
2022-11-01T19:26:27.874Z,100049.47
2022-11-01T19:28:55.707Z,100046.66
2022-11-01T19:31:32.186Z,100046.09
2022-11-01T19:34:03.599Z,100038.56
2022-11-01T19:36:40.625Z,100043.25
2022-11-01T19:39:19.278Z,100039.50
2022-11-01T19:41:46.908Z,100033.16
2022-11-01T19:44:19.287Z,100042.09
2022-11-01T19:46:46.979Z,100055.88
2022-11-01T19:49:23.729Z,100058.19
2022-11-01T19:52:23.117Z,100069.16
2022-11-01T19:54:52.193Z,100079.59
2022-11-01T19:57:37.462Z,100081.84
2022-11-01T20:00:21.755Z,100077.81
2022-11-01T20:02:52.530Z,100077.78
2022-11-01T20:05:23.719Z,100077.56
2022-11-01T20:07:51.804Z,100087.63
2022-11-01T20:10:19.645Z,100084.63
2022-11-01T20:12:47.627Z,100079.00
2022-11-01T20:15:15.693Z,100075.56
2022-11-01T20:20:16.455Z,100072.50
2022-11-01T20:22:54.559Z,100072.13
2022-11-01T20:25:30.876Z,100078.28
2022-11-01T20:27:58.556Z,100086.09
2022-11-01T20:30:26.210Z,100079.75
2022-11-01T20:32:54.162Z,100084.22
2022-11-01T20:35:21.798Z,100089.47
2022-11-01T20:37:49.406Z,100092.63
2022-11-01T20:40:17.326Z,100089.34
2022-11-01T20:42:45.987Z,100094.06
2022-11-01T20:45:14.696Z,100083.25
2022-11-01T20:47:46.360Z,100074.50
2022-11-01T20:50:15.556Z,100080.06
2022-11-01T20:52:43.616Z,100071.72
2022-11-01T20:55:12.644Z,100071.16
2022-11-01T20:57:40.287Z,100061.59
2022-11-01T21:00:18.918Z,100066.16
2022-11-01T21:02:47.259Z,100059.00
2022-11-01T21:05:22.429Z,100073.56
2022-11-01T21:07:53.961Z,100071.53
2022-11-01T21:10:43.902Z,100077.09
2022-11-01T21:13:35.758Z,100075.06
2022-11-01T21:16:08.445Z,100078.25
2022-11-01T21:18:42.171Z,100082.53
2022-11-01T21:21:15.870Z,100076.69
2022-11-01T21:23:44.541Z,100075.91
2022-11-01T21:26:18.484Z,100073.28
2022-11-01T21:29:14.574Z,100082.34
2022-11-01T21:31:42.632Z,100072.31
2022-11-01T21:34:10.181Z,100066.75
2022-11-01T21:36:41.881Z,100066.31
2022-11-01T21:39:19.870Z,100065.47
2022-11-01T21:41:51.778Z,100065.22
2022-11-01T21:44:45.505Z,100064.59
2022-11-01T21:47:23.558Z,100060.87
2022-11-01T21:49:51.631Z,100063.00
2022-11-01T21:52:19.635Z,100066.41
2022-11-01T21:54:48.467Z,100066.53
2022-11-01T21:57:16.753Z,100069.97
2022-11-01T21:59:44.432Z,100065.03
2022-11-01T22:02:13.843Z,100065.75
2022-11-01T22:04:42.192Z,100060.59
2022-11-01T22:07:10.819Z,100065.62
2022-11-01T22:09:38.613Z,100064.25
2022-11-01T22:12:06.970Z,100061.09
2022-11-01T22:14:34.924Z,100072.62
2022-11-01T22:17:02.405Z,100068.72
2022-11-01T22:19:30.083Z,100074.63
2022-11-01T22:21:57.653Z,100068.28
2022-11-01T22:24:25.771Z,100064.75
2022-11-01T22:26:53.468Z,100065.59
2022-11-01T22:29:20.920Z,100069.69
2022-11-01T22:31:48.344Z,100069.28
2022-11-01T22:34:17.437Z,100066.84
2022-11-01T22:36:44.880Z,100074.97
2022-11-01T22:39:18.717Z,100074.25
2022-11-01T22:41:47.203Z,100082.53
2022-11-01T22:44:17.163Z,100074.44
2022-11-01T22:46:47.795Z,100072.50
2022-11-01T22:49:36.232Z,100073.84
2022-11-01T22:52:06.557Z,100078.44
2022-11-01T22:54:47.614Z,100071.91
2022-11-01T22:57:18.187Z,100074.97
2022-11-01T22:59:56.589Z,100068.53
2022-11-01T23:02:26.970Z,100068.63
2022-11-01T23:05:06.112Z,100070.53
2022-11-01T23:07:37.315Z,100067.25
2022-11-01T23:10:28.363Z,100061.19
2022-11-01T23:13:20.937Z,100070.81
2022-11-01T23:15:48.656Z,100073.50
2022-11-01T23:18:21.140Z,100075.09
2022-11-01T23:20:57.494Z,100074.56
2022-11-01T23:23:26.492Z,100077.59
2022-11-01T23:25:55.962Z,100088.34
2022-11-01T23:28:24.513Z,100078.84
2022-11-01T23:30:52.062Z,100085.22
2022-11-01T23:33:21.201Z,100098.63
2022-11-01T23:35:57.104Z,100098.91
2022-11-01T23:38:37.480Z,100108.50
2022-11-01T23:41:05.216Z,100106.06
2022-11-01T23:43:37.983Z,100106.88
2022-11-01T23:46:11.473Z,100111.72
2022-11-01T23:48:43.325Z,100101.47
2022-11-01T23:51:20.315Z,100100.88
2022-11-01T23:53:51.370Z,100106.44
2022-11-01T23:56:20.118Z,100109.28
2022-11-01T23:58:53.803Z,100107.16
